Nearby METAR Reports

 

LIBV - Gioia Del Colle, Italy
Distance from station: SSO 15km
aktuell: 14/12/2018 14:55
teilweise bewölkt
teilweise bewölkt
 Wind von S
Wind: S 13 km/h
Temperatur: 14°C
Taupunkt: 12°C
Luftfeuchte: 88%
Luftdruck: 1009 hPa
Clouds: teilweise bewölkt
Visibility: 6 km
Cloud details: teilweise bewölkt 305 m
2018/12/14 13:55 LIBV 141355Z 17007KT 6000 SCT010 14/12 Q1009 RMK BKN BKN120 VIS MIN 6000 WIND THR32 16007KT WIND THR14 18006KT WHT
LIBD - Bari/Palese Macc, Italy
Distance from station: NNW 26km
aktuell: 14/12/2018 15:20
stark bewölkt
stark bewölkt
 Wind von NNW
Wind: NNW 11 km/h
Temperatur: 11°C
Taupunkt: 9°C
Luftfeuchte: 88%
Luftdruck: 1010 hPa
Clouds: stark bewölkt
Visibility: 6 km
Cloud details: stark bewölkt 244 m
2018/12/14 14:20 LIBD 141420Z 33006KT 300V360 6000 BKN008 11/09 Q1010
LIBH - Marina Di Ginosa, Italy
Distance from station: S 53km
aktuell: 14/12/2018 14:55
klar
klar
 Wind von SSW
Wind: SSW 9 km/h
Temperatur: 16°C
Taupunkt: 13°C
Luftfeuchte: 83%
Luftdruck: 1008 hPa
Zusammenfassung: klar
Visibility: greater than 10 km
2018/12/14 13:55 LIBH 141355Z 20005KT CAVOK 16/13 Q1008 RMK BKN SCT060 SCT100 BKN180 QUK 2 QUL 1 SE VIS MAR 18 KM VIS MIN 9999
 
LIBG - Grottaglie(Civ/A, Italy
Distance from station: SO 61km
aktuell: 14/12/2018 14:50
teilweise bewölkt
teilweise bewölkt
 Wind von S
Wind: S 19 km/h
Temperatur: 16°C
Taupunkt: 13°C
Luftfeuchte: 83%
Luftdruck: 1008 hPa
Clouds: teilweise bewölkt
Visibility: 10 km
Cloud details: teilweise bewölkt 305 m
teilweise bewölkt 610 m
2018/12/14 13:50 LIBG 141350Z 19010KT 9999 SCT010 SCT020 16/13 Q1008
LIBR - Brindisi/Casale, Italy
Distance from station: OSO 96km
aktuell: 14/12/2018 15:20
teilweise bewölkt
teilweise bewölkt
 Wind von S
Wind: S 22 km/h
Temperatur: 17°C
Taupunkt: 12°C
Luftfeuchte: 73%
Luftdruck: 1009 hPa
Clouds: teilweise bewölkt
Visibility: 10 km
Cloud details: teilweise bewölkt 457 m
2018/12/14 14:20 LIBR 141420Z 19012KT 160V220 9999 SCT015 17/12 Q1009
LIBA - Amendola (it-Afb, Italy
Distance from station: NW 118km
aktuell: 14/12/2018 14:55
stark bewölkt
stark bewölkt
 Wind von WNW
Wind: WNW 31 km/h
Temperatur: 7°C
Wind Chill: 3°C
Taupunkt: 5°C
Luftfeuchte: 87%
Luftdruck: 1009 hPa
Clouds: stark bewölkt
Visibility: 7 km
Cloud details: Few Clouds 457 m
teilweise bewölkt 914 m
stark bewölkt 1829 m
2018/12/14 13:55 LIBA 141355Z 29017KT 7000 FEW015 SCT030 BKN060 07/05 Q1009 RMK OVC VIS MIN 7000 WIND THR11 29016KT WIND THR29 /////KT WHT
 
LIBF - Foggia/Gino Lisa, Italy
Distance from station: WNW 126km
aktuell: 14/12/2018 14:50
stark bewölkt
stark bewölkt
 Wind von WNW
Wind: WNW 24 km/h
Temperatur: 8°C
Wind Chill: 4°C
Taupunkt: 7°C
Luftfeuchte: 93%
Luftdruck: 1010 hPa
Clouds: stark bewölkt
Visibility: 10 km
Cloud details: stark bewölkt 305 m
2018/12/14 13:50 LIBF 141350Z 30013KT 9999 BKN010 08/07 Q1010
LIBN - Lecce (it-Afb), Italy
Distance from station: SO 132km
aktuell: 14/12/2018 14:55
teilweise bewölkt
teilweise bewölkt
 Wind von S
Wind: S 24 km/h
Temperatur: 15°C
Taupunkt: 13°C
Luftfeuchte: 88%
Luftdruck: 1010 hPa
Clouds: teilweise bewölkt
Visibility: 10 km
Cloud details: teilweise bewölkt 549 m
teilweise bewölkt 762 m
2018/12/14 13:55 LIBN 141355Z 18013KT 9999 SCT018 SCT025 15/13 Q1010 RMK BKN BKN200 VIS MIN 9999 WIND THR14 18013KT WIND THR32 18011KT BLU